Time;durP1;ratioP1;P1;durP2;ratioP2;P2;SDS_P1;SDS_P2;PMS_P1;PMS_P2;Temp;Humidity;BMP_temperature;BMP_pressure;BME280_temperature;BME280_humidity;BME280_pressure;Samples;Min_cycle;Max_cycle;Signal;HPM_P1;HPM_P2
2022/08/11 00:01:23;;;;;;;9.18;4.97;;;;;;;;;;5101677;28;20043;-60
2022/08/11 00:03:54;;;;;;;6.63;4.60;;;;;;;;;;5105652;28;20126;-61
2022/08/11 00:06:27;;;;;;;8.80;4.57;;;;;;;;;;5096835;28;20771;-61
2022/08/11 00:08:55;;;;;;;7.28;4.82;;;;;;;;;;5097304;28;20050;-61
2022/08/11 00:11:23;;;;;;;7.63;4.85;;;;;;;;;;5103667;28;20524;-61
2022/08/11 00:13:51;;;;;;;8.35;5.13;;;;;;;;;;5104980;28;20043;-61
2022/08/11 00:16:19;;;;;;;10.15;5.20;;;;;;;;;;5105148;28;20058;-61
2022/08/11 00:18:47;;;;;;;7.65;5.25;;;;;;;;;;5101605;28;20044;-61
2022/08/11 00:21:14;;;;;;;8.57;4.38;;;;;;;;;;5102200;28;20062;-61
2022/08/11 00:23:46;;;;;;;8.15;4.75;;;;;;;;;;5104818;28;20051;-61
2022/08/11 00:26:14;;;;;;;10.27;5.30;;;;;;;;;;5104475;28;20066;-60
2022/08/11 00:28:42;;;;;;;7.30;5.10;;;;;;;;;;5083648;28;20040;-61
2022/08/11 00:31:10;;;;;;;6.85;5.22;;;;;;;;;;5104327;28;20103;-60
2022/08/11 00:33:38;;;;;;;8.15;5.10;;;;;;;;;;5102060;28;20602;-60
2022/08/11 00:36:07;;;;;;;6.90;4.47;;;;;;;;;;5103237;28;20075;-60
2022/08/11 00:38:36;;;;;;;6.47;4.65;;;;;;;;;;5105289;28;20043;-61
2022/08/11 00:41:11;;;;;;;8.68;4.50;;;;;;;;;;5100010;28;20071;-61
2022/08/11 00:43:56;;;;;;;9.98;5.10;;;;;;;;;;5103158;28;20682;-60
2022/08/11 00:46:31;;;;;;;10.15;5.78;;;;;;;;;;5098490;28;20052;-61
2022/08/11 00:49:03;;;;;;;7.03;5.75;;;;;;;;;;5098816;28;20323;-61
2022/08/11 00:51:38;;;;;;;7.43;6.18;;;;;;;;;;5098937;28;20048;-61
2022/08/11 00:54:09;;;;;;;8.05;6.00;;;;;;;;;;5098448;28;20482;-61
2022/08/11 00:56:49;;;;;;;10.38;6.10;;;;;;;;;;5094271;28;20052;-60
2022/08/11 00:59:27;;;;;;;8.88;6.30;;;;;;;;;;5104736;28;20047;-61
2022/08/11 01:01:58;;;;;;;8.38;5.93;;;;;;;;;;5096141;28;20044;-60
2022/08/11 01:04:44;;;;;;;8.18;5.80;;;;;;;;;;5099220;28;20048;-61
2022/08/11 01:07:29;;;;;;;12.27;7.00;;;;;;;;;;5099576;28;20453;-60
2022/08/11 01:10:03;;;;;;;8.75;6.00;;;;;;;;;;5058482;28;20158;-60
2022/08/11 01:12:36;;;;;;;8.57;5.70;;;;;;;;;;5096989;28;20328;-61
2022/08/11 01:15:29;;;;;;;9.65;6.15;;;;;;;;;;5102422;28;20745;-61
2022/08/11 01:18:17;;;;;;;9.18;5.80;;;;;;;;;;5108125;28;20303;-60
2022/08/11 01:21:00;;;;;;;8.43;6.05;;;;;;;;;;5079578;28;20047;-60
2022/08/11 01:23:50;;;;;;;8.30;5.43;;;;;;;;;;5099343;28;20119;-60
2022/08/11 01:26:41;;;;;;;10.68;6.18;;;;;;;;;;5100507;28;20075;-61
2022/08/11 01:29:24;;;;;;;7.80;5.80;;;;;;;;;;5106328;28;20048;-60
2022/08/11 01:32:02;;;;;;;10.45;6.65;;;;;;;;;;5104355;28;20039;-61
2022/08/11 01:34:48;;;;;;;8.90;5.68;;;;;;;;;;5103452;28;20074;-60
2022/08/11 01:37:30;;;;;;;7.90;6.00;;;;;;;;;;5104787;28;20047;-61
2022/08/11 01:40:12;;;;;;;10.80;6.80;;;;;;;;;;5082557;28;20076;-61
2022/08/11 01:45:47;;;;;;;9.48;5.85;;;;;;;;;;5101863;28;20047;-60
2022/08/11 01:48:16;;;;;;;7.07;5.85;;;;;;;;;;5100611;28;20130;-61
2022/08/11 01:50:54;;;;;;;8.93;5.70;;;;;;;;;;5099732;28;20134;-61
2022/08/11 01:53:29;;;;;;;12.10;5.95;;;;;;;;;;5104666;28;20052;-61
2022/08/11 01:56:05;;;;;;;8.65;6.13;;;;;;;;;;5087149;28;20047;-60
2022/08/11 01:58:36;;;;;;;8.52;5.85;;;;;;;;;;5102496;28;20585;-60
2022/08/11 02:01:11;;;;;;;8.10;5.60;;;;;;;;;;5104489;28;20047;-61
2022/08/11 02:03:43;;;;;;;8.85;5.55;;;;;;;;;;5101104;28;20049;-61
2022/08/11 02:08:58;;;;;;;8.10;5.50;;;;;;;;;;5101125;28;20044;-61
2022/08/11 02:11:30;;;;;;;9.23;4.90;;;;;;;;;;5105325;28;20048;-60
2022/08/11 02:14:00;;;;;;;9.40;5.78;;;;;;;;;;5101278;28;20085;-61
2022/08/11 02:16:34;;;;;;;8.90;5.30;;;;;;;;;;5102850;28;20062;-61
2022/08/11 02:24:42;;;;;;;8.48;5.22;;;;;;;;;;5104027;28;20100;-60
2022/08/11 02:27:15;;;;;;;7.40;4.63;;;;;;;;;;5088061;28;20465;-60
2022/08/11 02:29:51;;;;;;;10.40;5.18;;;;;;;;;;5107152;28;20055;-60
2022/08/11 02:35:12;;;;;;;6.88;5.10;;;;;;;;;;5100447;28;20036;-61
2022/08/11 02:37:44;;;;;;;9.05;5.55;;;;;;;;;;5101653;28;20059;-60
2022/08/11 02:40:19;;;;;;;8.63;5.28;;;;;;;;;;5106377;28;20637;-60
2022/08/11 02:42:57;;;;;;;9.18;4.72;;;;;;;;;;5098541;28;20090;-61
2022/08/11 02:45:35;;;;;;;7.13;4.30;;;;;;;;;;5102611;28;20052;-61
2022/08/11 02:50:57;;;;;;;10.68;5.25;;;;;;;;;;5102206;28;20040;-60
2022/08/11 02:53:28;;;;;;;7.95;5.20;;;;;;;;;;5105913;28;20047;-60
2022/08/11 02:55:59;;;;;;;5.85;4.93;;;;;;;;;;5104025;28;20062;-60
2022/08/11 02:58:38;;;;;;;8.38;5.18;;;;;;;;;;5104055;28;20040;-60
2022/08/11 03:01:10;;;;;;;7.55;4.93;;;;;;;;;;5105349;28;20049;-60
2022/08/11 03:03:42;;;;;;;11.77;4.90;;;;;;;;;;5095674;28;20048;-60
2022/08/11 03:06:10;;;;;;;10.98;4.43;;;;;;;;;;5096274;28;20790;-60
2022/08/11 03:08:50;;;;;;;8.45;4.28;;;;;;;;;;5099712;28;20043;-60
2022/08/11 03:16:58;;;;;;;;;;;;;;;;;;5105202;28;20074;-61
2022/08/11 03:19:28;;;;;;;6.47;4.25;;;;;;;;;;5105861;28;19924;-60
2022/08/11 03:22:00;;;;;;;7.43;5.18;;;;;;;;;;5104402;28;20579;-60
2022/08/11 03:24:32;;;;;;;12.07;4.78;;;;;;;;;;5084033;28;20048;-60
2022/08/11 03:27:04;;;;;;;7.05;5.05;;;;;;;;;;5099749;28;20052;-60
2022/08/11 03:29:36;;;;;;;6.85;5.10;;;;;;;;;;5101311;28;20056;-60
2022/08/11 03:32:07;;;;;;;7.63;5.43;;;;;;;;;;5103553;28;20592;-60
2022/08/11 03:34:36;;;;;;;6.97;5.07;;;;;;;;;;5099708;28;20056;-61
2022/08/11 03:40:11;;;;;;;6.70;5.05;;;;;;;;;;5099048;28;20509;-60
2022/08/11 03:42:43;;;;;;;9.47;4.93;;;;;;;;;;5100137;28;20051;-61
2022/08/11 03:45:20;;;;;;;7.05;5.55;;;;;;;;;;5102731;28;20126;-61
2022/08/11 03:48:14;;;;;;;7.15;5.05;;;;;;;;;;5104816;28;20047;-60
2022/08/11 03:50:51;;;;;;;6.70;4.70;;;;;;;;;;5056620;28;20108;-61
2022/08/11 03:53:21;;;;;;;11.48;5.20;;;;;;;;;;5105378;28;20051;-60
2022/08/11 03:56:17;;;;;;;9.65;5.15;;;;;;;;;;5106119;28;20044;-60
2022/08/11 03:59:19;;;;;;;10.00;5.20;;;;;;;;;;5052538;28;20047;-61
2022/08/11 04:02:04;;;;;;;11.20;6.00;;;;;;;;;;5040699;28;20460;-60
2022/08/11 04:04:50;;;;;;;8.70;6.40;;;;;;;;;;5040941;28;20096;-60
2022/08/11 04:07:28;;;;;;;9.05;6.15;;;;;;;;;;5067977;28;20063;-60
2022/08/11 04:10:10;;;;;;;12.30;6.50;;;;;;;;;;5080488;28;20136;-60
2022/08/11 04:12:44;;;;;;;9.10;6.10;;;;;;;;;;5087095;28;20052;-60
2022/08/11 04:18:29;;;;;;;8.13;6.13;;;;;;;;;;5101347;28;20143;-61
2022/08/11 04:21:15;;;;;;;9.52;6.43;;;;;;;;;;5081978;28;20490;-61
2022/08/11 04:24:03;;;;;;;9.68;6.07;;;;;;;;;;5099383;28;20127;-61
2022/08/11 04:27:00;;;;;;;10.75;6.47;;;;;;;;;;5103231;28;20048;-61
2022/08/11 04:29:36;;;;;;;8.73;6.40;;;;;;;;;;5099513;28;20453;-61
2022/08/11 04:32:10;;;;;;;9.98;6.45;;;;;;;;;;5097609;28;20494;-61
2022/08/11 04:35:03;;;;;;;9.52;6.30;;;;;;;;;;5098189;28;20058;-60
2022/08/11 04:37:39;;;;;;;9.85;6.95;;;;;;;;;;5075846;28;20055;-61
2022/08/11 04:40:19;;;;;;;12.73;7.00;;;;;;;;;;5097765;28;20513;-60
2022/08/11 04:43:22;;;;;;;9.77;6.88;;;;;;;;;;5104741;28;20100;-61
2022/08/11 04:46:02;;;;;;;9.43;7.07;;;;;;;;;;5103106;28;20605;-60
2022/08/11 05:03:24;;;;;;;9.63;6.38;;;;;;;;;;5100953;28;20044;-61
2022/08/11 05:06:06;;;;;;;9.77;6.43;;;;;;;;;;5096198;28;20055;-61
2022/08/11 05:08:50;;;;;;;9.82;6.88;;;;;;;;;;5100129;28;20101;-61
2022/08/11 05:11:31;;;;;;;10.13;7.57;;;;;;;;;;5102900;27;20550;-60
2022/08/11 05:36:36;;;;;;;15.48;8.70;;;;;;;;;;5088206;28;20105;-61
2022/08/11 05:58:37;;;;;;;13.75;9.20;;;;;;;;;;5100076;28;20050;-61
2022/08/11 06:01:05;;;;;;;15.13;9.27;;;;;;;;;;5101361;28;20671;-61
2022/08/11 06:04:12;;;;;;;19.40;10.02;;;;;;;;;;5105914;28;20043;-61
2022/08/11 06:06:21;;;;;;;13.60;8.55;;;;;;;;;;5083647;28;20075;-60
2022/08/11 06:08:48;;;;;;;13.07;9.25;;;;;;;;;;5106588;28;20047;-60
2022/08/11 06:11:17;;;;;;;16.52;8.30;;;;;;;;;;5106144;28;20055;-61
2022/08/11 06:13:46;;;;;;;14.82;9.57;;;;;;;;;;5104081;28;20128;-61
2022/08/11 06:16:14;;;;;;;11.82;9.45;;;;;;;;;;5095616;27;20800;-60
2022/08/11 06:18:46;;;;;;;12.80;9.52;;;;;;;;;;5096801;27;20054;-61
2022/08/11 06:21:14;;;;;;;14.80;9.10;;;;;;;;;;5096956;27;20070;-61
2022/08/11 06:23:43;;;;;;;14.65;9.30;;;;;;;;;;5101195;28;20464;-61
2022/08/11 06:26:10;;;;;;;16.65;9.38;;;;;;;;;;5101685;27;20056;-61
2022/08/11 06:28:41;;;;;;;14.38;9.27;;;;;;;;;;5102940;28;20574;-60
2022/08/11 06:31:14;;;;;;;16.60;9.43;;;;;;;;;;5098711;27;20059;-60
2022/08/11 06:33:42;;;;;;;;;;;;;;;;;;5100901;28;20052;-61
2022/08/11 06:36:15;;;;;;;14.52;8.93;;;;;;;;;;5103110;28;20392;-61
2022/08/11 06:38:50;;;;;;;18.30;8.93;;;;;;;;;;5098799;28;20116;-61
2022/08/11 06:41:33;;;;;;;13.35;9.73;;;;;;;;;;5103042;28;20054;-61
2022/08/11 06:44:06;;;;;;;10.38;8.73;;;;;;;;;;5103311;28;20059;-61
2022/08/11 06:46:37;;;;;;;17.77;9.38;;;;;;;;;;5103384;28;20058;-61
2022/08/11 06:51:10;;;;;;;14.00;8.63;;;;;;;;;;5097797;28;20055;-61
2022/08/11 06:51:53;;;;;;;10.98;8.32;;;;;;;;;;5100903;28;20701;-61
2022/08/11 06:54:21;;;;;;;12.55;8.45;;;;;;;;;;5099774;28;20039;-61
2022/08/11 07:02:24;;;;;;;11.40;7.55;;;;;;;;;;5095944;28;20078;-61
2022/08/11 07:04:55;;;;;;;12.87;8.87;;;;;;;;;;5099781;28;20182;-61
2022/08/11 07:16:05;;;;;;;10.15;7.15;;;;;;;;;;5102562;28;20047;-60
2022/08/11 07:29:56;;;;;;;11.32;6.57;;;;;;;;;;5082475;28;20044;-61
2022/08/11 07:32:26;;;;;;;10.35;6.75;;;;;;;;;;5099640;28;20048;-61
2022/08/11 07:35:00;;;;;;;12.20;6.85;;;;;;;;;;5093654;28;20048;-61
2022/08/11 07:37:30;;;;;;;8.75;5.80;;;;;;;;;;5096349;28;20066;-61
2022/08/11 07:39:59;;;;;;;13.02;6.57;;;;;;;;;;5097370;28;20052;-61
2022/08/11 07:42:28;;;;;;;8.50;6.13;;;;;;;;;;5097373;28;20483;-61
2022/08/11 07:53:25;;;;;;;12.75;5.70;;;;;;;;;;5091512;28;20070;-61
2022/08/11 07:55:54;;;;;;;11.50;5.88;;;;;;;;;;5099574;28;20069;-61
2022/08/11 08:17:56;;;;;;;12.07;4.95;;;;;;;;;;5099358;28;20127;-61
2022/08/11 08:20:24;;;;;;;8.07;4.00;;;;;;;;;;5098437;28;20048;-61
2022/08/11 08:22:55;;;;;;;11.35;3.65;;;;;;;;;;5084061;28;20129;-61
2022/08/11 08:25:24;;;;;;;6.95;3.55;;;;;;;;;;5094557;28;20047;-60
2022/08/11 08:27:51;;;;;;;8.32;4.10;;;;;;;;;;5101039;28;20791;-61
2022/08/11 08:33:04;;;;;;;6.53;3.70;;;;;;;;;;5074755;28;20128;-61
2022/08/11 08:35:31;;;;;;;7.05;3.75;;;;;;;;;;5101011;28;20051;-61
2022/08/11 08:38:00;;;;;;;6.95;3.10;;;;;;;;;;5098081;28;20047;-61
2022/08/11 08:40:28;;;;;;;8.38;2.78;;;;;;;;;;5099804;28;20127;-61
2022/08/11 08:42:56;;;;;;;6.50;2.72;;;;;;;;;;5096636;28;20048;-61
2022/08/11 08:45:26;;;;;;;9.48;3.42;;;;;;;;;;5099550;28;20498;-61
2022/08/11 08:47:55;;;;;;;8.32;3.50;;;;;;;;;;5094799;28;20047;-61
2022/08/11 08:51:32;;;;;;;5.00;2.80;;;;;;;;;;5095903;28;20048;-61
2022/08/11 08:53:13;;;;;;;4.72;2.45;;;;;;;;;;5099611;28;20056;-61
2022/08/11 08:55:41;;;;;;;7.97;2.80;;;;;;;;;;5094111;28;20048;-61
2022/08/11 08:58:09;;;;;;;6.70;2.63;;;;;;;;;;5097403;28;20054;-61
2022/08/11 09:00:39;;;;;;;4.55;2.00;;;;;;;;;;5097703;28;20047;-62
2022/08/11 09:03:07;;;;;;;4.93;2.40;;;;;;;;;;5100374;28;20056;-61
2022/08/11 09:05:34;;;;;;;7.63;2.90;;;;;;;;;;5099879;28;20749;-61
2022/08/11 09:08:02;;;;;;;7.45;2.85;;;;;;;;;;5098535;28;20055;-62
2022/08/11 09:10:31;;;;;;;5.10;2.38;;;;;;;;;;5097279;28;20411;-62
2022/08/11 09:13:00;;;;;;;7.13;2.00;;;;;;;;;;5082086;28;20774;-60
2022/08/11 09:15:28;;;;;;;9.40;1.90;;;;;;;;;;5098704;28;20044;-61
2022/08/11 09:17:57;;;;;;;6.88;1.88;;;;;;;;;;5096193;28;20075;-61
2022/08/11 09:20:25;;;;;;;3.10;1.98;;;;;;;;;;5095766;28;20039;-61
2022/08/11 09:28:29;;;;;;;6.70;2.15;;;;;;;;;;5094637;28;20454;-61
2022/08/11 09:30:59;;;;;;;5.30;2.05;;;;;;;;;;5097547;28;20073;-61
2022/08/11 09:33:28;;;;;;;3.97;1.75;;;;;;;;;;5094484;28;20065;-62
2022/08/11 09:35:55;;;;;;;6.85;1.67;;;;;;;;;;5098838;28;20052;-61
2022/08/11 09:41:11;;;;;;;8.10;1.52;;;;;;;;;;5101744;28;20090;-61
2022/08/11 09:46:27;;;;;;;3.33;1.60;;;;;;;;;;5098486;28;20046;-61
2022/08/11 09:48:56;;;;;;;3.80;1.80;;;;;;;;;;5101237;28;20161;-61
2022/08/11 09:51:23;;;;;;;7.72;2.08;;;;;;;;;;5101540;28;20050;-61
2022/08/11 09:53:51;;;;;;;5.78;1.63;;;;;;;;;;5079995;28;20058;-61
2022/08/11 09:59:06;;;;;;;5.32;1.58;;;;;;;;;;5102960;28;20077;-61
2022/08/11 10:01:39;;;;;;;3.55;1.55;;;;;;;;;;5101171;28;20044;-61
2022/08/11 10:04:09;;;;;;;6.65;1.85;;;;;;;;;;5099313;28;20052;-62
2022/08/11 10:09:24;;;;;;;5.05;1.50;;;;;;;;;;5080979;28;20595;-62
2022/08/11 10:11:53;;;;;;;8.45;1.40;;;;;;;;;;5102716;28;20050;-62
2022/08/11 10:17:07;;;;;;;5.38;1.20;;;;;;;;;;5100819;28;20412;-61
2022/08/11 10:19:36;;;;;;;3.85;1.40;;;;;;;;;;5101378;28;20051;-62
2022/08/11 10:27:36;;;;;;;5.65;1.60;;;;;;;;;;5098514;28;20036;-62
2022/08/11 10:35:35;;;;;;;7.10;1.70;;;;;;;;;;5095699;28;20046;-62
2022/08/11 10:38:03;;;;;;;3.35;1.58;;;;;;;;;;5103253;28;20082;-62
2022/08/11 10:40:31;;;;;;;4.40;1.50;;;;;;;;;;5103318;28;20043;-61
2022/08/11 10:43:05;;;;;;;5.25;1.60;;;;;;;;;;5097172;28;20047;-61
2022/08/11 10:48:21;;;;;;;7.68;1.67;;;;;;;;;;5101860;28;20058;-61
2022/08/11 10:59:08;;;;;;;3.95;1.60;;;;;;;;;;5103617;28;20086;-61
2022/08/11 11:01:38;;;;;;;4.72;1.80;;;;;;;;;;5099586;28;20324;-62
2022/08/11 11:04:09;;;;;;;7.65;1.40;;;;;;;;;;5098274;28;20100;-62
2022/08/11 11:06:43;;;;;;;5.60;1.63;;;;;;;;;;5097190;28;20082;-61
2022/08/11 11:09:13;;;;;;;7.80;1.58;;;;;;;;;;5096799;28;20080;-61
2022/08/11 11:20:15;;;;;;;3.60;1.58;;;;;;;;;;5098573;28;20050;-61
2022/08/11 11:22:47;;;;;;;4.60;1.80;;;;;;;;;;5100706;28;20135;-62
2022/08/11 11:25:32;;;;;;;9.00;1.52;;;;;;;;;;5096962;28;20149;-61
2022/08/11 11:28:18;;;;;;;4.15;1.40;;;;;;;;;;5081020;28;20048;-62
2022/08/11 11:30:53;;;;;;;3.72;1.67;;;;;;;;;;5096136;28;20052;-62
2022/08/11 11:33:25;;;;;;;4.50;1.75;;;;;;;;;;5102339;28;20046;-62
2022/08/11 11:35:58;;;;;;;3.60;1.83;;;;;;;;;;5095610;28;20086;-62
2022/08/11 11:38:26;;;;;;;6.68;1.98;;;;;;;;;;5081261;28;20043;-62
2022/08/11 11:43:36;;;;;;;5.75;1.98;;;;;;;;;;5095789;28;20043;-62
2022/08/11 11:46:06;;;;;;;4.97;2.15;;;;;;;;;;5101121;28;20127;-63
2022/08/11 11:48:36;;;;;;;5.10;2.13;;;;;;;;;;5098027;28;20102;-62
2022/08/11 11:51:04;;;;;;;2.83;1.70;;;;;;;;;;5082440;28;20075;-62
2022/08/11 11:53:31;;;;;;;2.75;1.70;;;;;;;;;;5098315;28;20047;-63
2022/08/11 11:55:59;;;;;;;5.05;1.77;;;;;;;;;;5101434;28;20040;-63
2022/08/11 12:01:18;;;;;;;5.25;1.80;;;;;;;;;;5096321;28;20733;-63
2022/08/11 12:03:46;;;;;;;2.65;1.77;;;;;;;;;;5099499;28;20047;-62
2022/08/11 12:06:14;;;;;;;3.80;1.80;;;;;;;;;;5097170;28;20615;-63
2022/08/11 12:08:42;;;;;;;7.53;2.20;;;;;;;;;;5095848;28;20104;-62
2022/08/11 12:13:56;;;;;;;3.85;1.80;;;;;;;;;;5097499;28;20043;-63
2022/08/11 12:16:24;;;;;;;3.67;2.00;;;;;;;;;;5083152;28;20059;-63
2022/08/11 12:18:53;;;;;;;4.63;2.00;;;;;;;;;;5098353;28;20056;-63
2022/08/11 12:21:20;;;;;;;3.42;1.88;;;;;;;;;;5102931;28;20048;-63
2022/08/11 12:29:25;;;;;;;3.22;2.10;;;;;;;;;;5057443;28;20050;-63
2022/08/11 12:31:57;;;;;;;6.57;2.13;;;;;;;;;;5095376;28;20717;-63
2022/08/11 12:34:27;;;;;;;9.45;2.70;;;;;;;;;;5097996;28;20608;-63
2022/08/11 12:36:55;;;;;;;10.77;2.50;;;;;;;;;;5100300;28;20055;-63
2022/08/11 12:45:26;;;;;;;8.70;2.50;;;;;;;;;;5100204;28;20630;-63
2022/08/11 12:53:21;;;;;;;13.13;2.70;;;;;;;;;;5101348;28;20689;-64
2022/08/11 12:58:34;;;;;;;7.00;2.50;;;;;;;;;;5098816;28;20051;-63
2022/08/11 13:06:32;;;;;;;15.93;2.90;;;;;;;;;;5073279;28;20087;-63
2022/08/11 13:09:00;;;;;;;8.30;2.78;;;;;;;;;;5099489;28;20086;-62
2022/08/11 13:14:13;;;;;;;7.30;2.70;;;;;;;;;;5101765;28;20121;-63
2022/08/11 13:19:24;;;;;;;15.02;2.90;;;;;;;;;;5103637;28;20070;-64
2022/08/11 13:21:51;;;;;;;5.68;2.60;;;;;;;;;;5104097;28;20043;-64
2022/08/11 13:24:19;;;;;;;5.10;2.70;;;;;;;;;;5106936;27;20124;-63
2022/08/11 13:26:47;;;;;;;5.47;2.70;;;;;;;;;;5100498;28;20715;-63
2022/08/11 13:29:14;;;;;;;6.35;2.90;;;;;;;;;;5099344;28;20067;-63
2022/08/11 13:31:42;;;;;;;5.18;2.67;;;;;;;;;;5101526;28;20038;-63
2022/08/11 13:34:10;;;;;;;10.25;2.55;;;;;;;;;;5103802;28;20130;-63
2022/08/11 13:36:39;;;;;;;5.95;2.58;;;;;;;;;;5101135;28;20051;-63
2022/08/11 13:39:07;;;;;;;3.50;2.35;;;;;;;;;;5100002;28;20054;-63
2022/08/11 13:41:41;;;;;;;4.95;2.60;;;;;;;;;;5101445;28;20147;-64
2022/08/11 13:44:10;;;;;;;4.97;2.50;;;;;;;;;;5105324;28;20094;-63
2022/08/11 13:46:38;;;;;;;6.53;2.38;;;;;;;;;;5104988;28;20070;-63
2022/08/11 13:49:07;;;;;;;4.30;2.40;;;;;;;;;;5098219;28;20422;-64
2022/08/11 13:51:36;;;;;;;3.65;2.47;;;;;;;;;;5084273;28;20051;-63
2022/08/11 13:54:06;;;;;;;3.63;2.55;;;;;;;;;;5097012;28;20057;-63
2022/08/11 13:56:33;;;;;;;6.40;2.80;;;;;;;;;;5097769;28;20495;-63
2022/08/11 13:59:02;;;;;;;6.25;2.40;;;;;;;;;;5103531;28;20551;-63
2022/08/11 14:01:31;;;;;;;5.78;2.50;;;;;;;;;;5079449;28;20463;-63
2022/08/11 14:04:03;;;;;;;4.32;2.60;;;;;;;;;;5100581;28;20047;-63
2022/08/11 14:06:31;;;;;;;8.32;2.58;;;;;;;;;;5100813;28;20071;-63
2022/08/11 14:08:58;;;;;;;5.07;2.83;;;;;;;;;;5102544;28;20051;-63
2022/08/11 14:14:18;;;;;;;7.82;2.80;;;;;;;;;;5102099;28;20058;-63
2022/08/11 14:16:45;;;;;;;5.03;2.92;;;;;;;;;;5099701;28;20052;-63
2022/08/11 14:19:14;;;;;;;5.30;3.30;;;;;;;;;;5101534;28;20490;-63
2022/08/11 14:24:29;;;;;;;5.32;2.85;;;;;;;;;;5082858;28;20561;-63
2022/08/11 14:26:57;;;;;;;7.70;2.97;;;;;;;;;;5094202;28;20128;-63
2022/08/11 14:29:26;;;;;;;3.90;3.15;;;;;;;;;;5103033;28;20410;-63
2022/08/11 14:31:55;;;;;;;4.20;3.33;;;;;;;;;;5095655;28;20067;-62
2022/08/11 14:34:23;;;;;;;5.53;2.55;;;;;;;;;;5102148;28;20051;-63
2022/08/11 14:36:52;;;;;;;6.18;4.03;;;;;;;;;;5102246;28;20423;-64
2022/08/11 14:39:20;;;;;;;10.20;3.10;;;;;;;;;;5101808;28;20048;-63
2022/08/11 14:47:22;;;;;;;6.40;2.80;;;;;;;;;;5100226;28;20131;-63
2022/08/11 14:49:50;;;;;;;4.10;2.92;;;;;;;;;;5079713;28;20058;-64
2022/08/11 14:52:19;;;;;;;3.03;2.80;;;;;;;;;;5085067;28;20079;-63
2022/08/11 14:57:36;;;;;;;4.10;2.92;;;;;;;;;;5098184;28;20562;-63
2022/08/11 15:00:06;;;;;;;5.60;2.70;;;;;;;;;;5102119;28;20078;-63
2022/08/11 15:05:20;;;;;;;5.97;2.92;;;;;;;;;;5095182;28;20047;-63
2022/08/11 15:07:48;;;;;;;7.03;3.00;;;;;;;;;;5099015;28;20044;-63
2022/08/11 15:10:17;;;;;;;4.82;2.75;;;;;;;;;;5083608;28;20099;-63
2022/08/11 15:12:44;;;;;;;6.88;3.28;;;;;;;;;;5096169;28;21297;-63
2022/08/11 15:18:04;;;;;;;6.60;3.30;;;;;;;;;;5060062;28;20197;-63
2022/08/11 15:26:05;;;;;;;5.78;3.25;;;;;;;;;;5094326;28;20075;-63
2022/08/11 15:45:46;;;;;;;7.88;3.33;;;;;;;;;;5097992;28;20063;-63
2022/08/11 15:48:15;;;;;;;6.57;3.00;;;;;;;;;;5097353;28;20054;-63
2022/08/11 15:50:47;;;;;;;5.95;2.90;;;;;;;;;;5095326;28;20048;-63
2022/08/11 15:53:18;;;;;;;4.65;2.72;;;;;;;;;;5094734;28;20096;-63
2022/08/11 15:55:45;;;;;;;;;;;;;;;;;;5102463;28;20043;-63
2022/08/11 16:06:34;;;;;;;3.55;2.90;;;;;;;;;;5100691;28;20050;-63
2022/08/11 16:09:04;;;;;;;10.90;3.40;;;;;;;;;;5102696;28;20666;-63
2022/08/11 16:11:32;;;;;;;8.00;2.87;;;;;;;;;;5080704;28;20043;-63
2022/08/11 16:16:46;;;;;;;3.70;2.83;;;;;;;;;;5097021;28;20185;-63
2022/08/11 16:19:16;;;;;;;5.57;2.95;;;;;;;;;;5101771;28;20100;-63
2022/08/11 16:21:44;;;;;;;6.32;2.80;;;;;;;;;;5098285;28;20052;-63
2022/08/11 16:24:13;;;;;;;6.03;3.20;;;;;;;;;;5101299;28;20054;-63
2022/08/11 16:26:43;;;;;;;4.63;3.13;;;;;;;;;;5099647;28;20059;-63
2022/08/11 16:29:11;;;;;;;4.03;2.70;;;;;;;;;;5101282;28;20055;-63
2022/08/11 16:31:39;;;;;;;4.45;2.72;;;;;;;;;;5097269;28;20035;-62
2022/08/11 16:38:33;;;;;;;6.13;2.97;;;;;;;;;;5101644;28;20632;-63
2022/08/11 16:39:43;;;;;;;4.85;2.80;;;;;;;;;;5099716;28;20062;-63
2022/08/11 16:47:42;;;;;;;5.93;2.95;;;;;;;;;;5102501;28;20703;-62
2022/08/11 16:50:09;;;;;;;8.43;3.20;;;;;;;;;;5105588;28;20055;-63
2022/08/11 16:52:38;;;;;;;3.58;3.00;;;;;;;;;;5106709;28;20494;-63
2022/08/11 16:55:06;;;;;;;5.45;2.90;;;;;;;;;;5102824;28;20105;-63
2022/08/11 17:00:19;;;;;;;4.88;2.80;;;;;;;;;;5098381;28;20051;-63
2022/08/11 17:13:57;;;;;;;5.72;2.47;;;;;;;;;;5108336;28;20058;-63
2022/08/11 17:16:26;;;;;;;4.78;2.60;;;;;;;;;;5107837;28;20047;-62
2022/08/11 17:18:57;;;;;;;5.15;2.85;;;;;;;;;;5101558;28;20108;-63
2022/08/11 17:21:26;;;;;;;3.97;2.45;;;;;;;;;;5098527;28;20384;-63
2022/08/11 17:23:55;;;;;;;4.43;2.83;;;;;;;;;;5104633;28;20056;-62
2022/08/11 17:26:25;;;;;;;6.78;2.53;;;;;;;;;;5101708;28;20398;-61
2022/08/11 17:28:55;;;;;;;5.65;2.50;;;;;;;;;;5105850;28;20073;-62
2022/08/11 17:36:54;;;;;;;3.63;2.20;;;;;;;;;;5108005;28;20050;-62
2022/08/11 17:39:27;;;;;;;6.28;2.20;;;;;;;;;;5104039;28;20044;-62
2022/08/11 17:50:10;;;;;;;2.35;1.90;;;;;;;;;;5040123;28;20481;-61
2022/08/11 18:01:03;;;;;;;4.75;2.10;;;;;;;;;;5095960;28;20131;-62
2022/08/11 18:03:32;;;;;;;4.45;1.92;;;;;;;;;;5097020;28;20537;-61
2022/08/11 18:06:01;;;;;;;2.38;1.75;;;;;;;;;;5097965;28;20052;-61
